Terminal Aerodrome Forecast
Issued by NWS

Home | Current Version | Previous Version | Text Only | Print | Product List | Glossary Off
Versions: 1 2 3 4 5 6 7 8 9 10 11 12 13 14 15 16 17 18 19 20 21 22 23

615
FTUS43 KAPX 230306 AAA
TAFTVC
TAF AMD
KTVC 230306Z 2303/2324 21008KT 6SM BR SCT008 OVC015
     FM230600 24006KT 3SM BR BKN006
     FM230800 28006KT 2SM BR BKN003
     FM231400 34011G20KT P6SM BKN010
     FM231700 36013G22KT P6SM BKN020=

USA.gov is the U.S. government's official web portal to all federal, state and local government web resources and services.